sensor_id;sensor_type;location;lat;lon;timestamp;P1;durP1;ratioP1;P2;durP2;ratioP2
19137;SDS011;68178;52.188;5.598;2023-05-14T00:00:50;22.33;;;18.60;;
19137;SDS011;68178;52.188;5.598;2023-05-14T00:03:16;19.00;;;17.10;;
19137;SDS011;68178;52.188;5.598;2023-05-14T00:05:42;21.42;;;19.13;;
19137;SDS011;68178;52.188;5.598;2023-05-14T00:08:07;21.25;;;18.10;;
19137;SDS011;68178;52.188;5.598;2023-05-14T00:10:33;20.42;;;18.30;;
19137;SDS011;68178;52.188;5.598;2023-05-14T00:12:58;24.33;;;19.02;;
19137;SDS011;68178;52.188;5.598;2023-05-14T00:15:24;24.98;;;20.02;;
19137;SDS011;68178;52.188;5.598;2023-05-14T00:17:50;22.88;;;18.40;;
19137;SDS011;68178;52.188;5.598;2023-05-14T00:20:15;19.58;;;17.48;;
19137;SDS011;68178;52.188;5.598;2023-05-14T00:22:41;23.73;;;18.20;;
19137;SDS011;68178;52.188;5.598;2023-05-14T00:25:07;22.67;;;17.85;;
19137;SDS011;68178;52.188;5.598;2023-05-14T00:27:33;22.23;;;17.35;;
19137;SDS011;68178;52.188;5.598;2023-05-14T00:29:59;19.00;;;16.45;;
19137;SDS011;68178;52.188;5.598;2023-05-14T00:32:24;25.30;;;17.17;;
19137;SDS011;68178;52.188;5.598;2023-05-14T00:34:50;20.45;;;16.17;;
19137;SDS011;68178;52.188;5.598;2023-05-14T00:37:16;18.42;;;15.48;;
19137;SDS011;68178;52.188;5.598;2023-05-14T00:39:41;20.45;;;15.80;;
19137;SDS011;68178;52.188;5.598;2023-05-14T00:42:07;21.08;;;16.85;;
19137;SDS011;68178;52.188;5.598;2023-05-14T00:44:32;22.52;;;17.02;;
19137;SDS011;68178;52.188;5.598;2023-05-14T00:46:59;23.83;;;17.23;;
19137;SDS011;68178;52.188;5.598;2023-05-14T00:49:25;19.77;;;17.75;;
19137;SDS011;68178;52.188;5.598;2023-05-14T00:51:52;20.75;;;16.23;;
19137;SDS011;68178;52.188;5.598;2023-05-14T00:54:18;20.33;;;16.17;;
19137;SDS011;68178;52.188;5.598;2023-05-14T00:56:44;23.00;;;16.30;;
19137;SDS011;68178;52.188;5.598;2023-05-14T00:59:11;19.77;;;17.02;;
19137;SDS011;68178;52.188;5.598;2023-05-14T01:01:37;18.05;;;16.13;;
19137;SDS011;68178;52.188;5.598;2023-05-14T01:04:03;18.98;;;16.60;;
19137;SDS011;68178;52.188;5.598;2023-05-14T01:09:08;21.10;;;16.75;;
19137;SDS011;68178;52.188;5.598;2023-05-14T01:11:59;18.63;;;15.43;;
19137;SDS011;68178;52.188;5.598;2023-05-14T01:14:38;18.38;;;16.35;;
19137;SDS011;68178;52.188;5.598;2023-05-14T01:17:10;22.25;;;16.10;;
19137;SDS011;68178;52.188;5.598;2023-05-14T01:19:40;18.40;;;15.10;;
19137;SDS011;68178;52.188;5.598;2023-05-14T01:22:08;20.98;;;16.92;;
19137;SDS011;68178;52.188;5.598;2023-05-14T01:24:35;24.75;;;16.48;;
19137;SDS011;68178;52.188;5.598;2023-05-14T01:29:42;18.40;;;15.25;;
19137;SDS011;68178;52.188;5.598;2023-05-14T01:32:13;18.92;;;15.43;;
19137;SDS011;68178;52.188;5.598;2023-05-14T01:34:41;19.38;;;15.98;;
19137;SDS011;68178;52.188;5.598;2023-05-14T01:37:08;19.63;;;15.90;;
19137;SDS011;68178;52.188;5.598;2023-05-14T01:39:36;19.00;;;15.13;;
19137;SDS011;68178;52.188;5.598;2023-05-14T01:42:04;18.38;;;16.27;;
19137;SDS011;68178;52.188;5.598;2023-05-14T01:44:33;17.67;;;14.98;;
19137;SDS011;68178;52.188;5.598;2023-05-14T01:47:00;18.63;;;15.95;;
19137;SDS011;68178;52.188;5.598;2023-05-14T01:49:25;21.83;;;16.40;;
19137;SDS011;68178;52.188;5.598;2023-05-14T01:51:51;25.55;;;17.17;;
19137;SDS011;68178;52.188;5.598;2023-05-14T01:54:16;18.52;;;16.00;;
19137;SDS011;68178;52.188;5.598;2023-05-14T01:56:42;23.35;;;16.33;;
19137;SDS011;68178;52.188;5.598;2023-05-14T01:59:10;22.38;;;16.42;;
19137;SDS011;68178;52.188;5.598;2023-05-14T02:01:36;20.15;;;16.40;;
19137;SDS011;68178;52.188;5.598;2023-05-14T02:04:02;24.33;;;17.08;;
19137;SDS011;68178;52.188;5.598;2023-05-14T02:06:28;20.05;;;16.73;;
19137;SDS011;68178;52.188;5.598;2023-05-14T02:08:54;16.98;;;15.27;;
19137;SDS011;68178;52.188;5.598;2023-05-14T02:11:19;19.40;;;16.58;;
19137;SDS011;68178;52.188;5.598;2023-05-14T02:13:45;22.33;;;17.63;;
19137;SDS011;68178;52.188;5.598;2023-05-14T02:16:11;21.58;;;16.92;;
19137;SDS011;68178;52.188;5.598;2023-05-14T02:18:36;22.73;;;17.80;;
19137;SDS011;68178;52.188;5.598;2023-05-14T02:21:02;22.45;;;17.38;;
19137;SDS011;68178;52.188;5.598;2023-05-14T02:23:28;20.58;;;16.17;;
19137;SDS011;68178;52.188;5.598;2023-05-14T02:25:53;19.48;;;16.67;;
19137;SDS011;68178;52.188;5.598;2023-05-14T02:28:19;24.85;;;17.85;;
19137;SDS011;68178;52.188;5.598;2023-05-14T02:30:44;23.23;;;17.15;;
19137;SDS011;68178;52.188;5.598;2023-05-14T02:33:10;23.83;;;16.48;;
19137;SDS011;68178;52.188;5.598;2023-05-14T02:35:35;21.25;;;17.48;;
19137;SDS011;68178;52.188;5.598;2023-05-14T02:38:01;22.70;;;17.08;;
19137;SDS011;68178;52.188;5.598;2023-05-14T02:40:27;20.02;;;17.50;;
19137;SDS011;68178;52.188;5.598;2023-05-14T02:42:52;21.42;;;18.00;;
19137;SDS011;68178;52.188;5.598;2023-05-14T02:45:18;21.92;;;18.02;;
19137;SDS011;68178;52.188;5.598;2023-05-14T02:47:43;25.80;;;19.00;;
19137;SDS011;68178;52.188;5.598;2023-05-14T02:50:09;23.75;;;19.10;;
19137;SDS011;68178;52.188;5.598;2023-05-14T02:52:35;26.35;;;18.92;;
19137;SDS011;68178;52.188;5.598;2023-05-14T02:55:00;26.20;;;18.80;;
19137;SDS011;68178;52.188;5.598;2023-05-14T02:57:26;22.20;;;19.30;;
19137;SDS011;68178;52.188;5.598;2023-05-14T02:59:52;25.50;;;19.10;;
19137;SDS011;68178;52.188;5.598;2023-05-14T03:02:17;22.73;;;19.25;;
19137;SDS011;68178;52.188;5.598;2023-05-14T03:04:43;26.27;;;20.20;;
19137;SDS011;68178;52.188;5.598;2023-05-14T03:07:08;21.70;;;19.42;;
19137;SDS011;68178;52.188;5.598;2023-05-14T03:09:34;25.33;;;20.48;;
19137;SDS011;68178;52.188;5.598;2023-05-14T03:11:59;21.55;;;18.58;;
19137;SDS011;68178;52.188;5.598;2023-05-14T03:14:25;29.10;;;20.92;;
19137;SDS011;68178;52.188;5.598;2023-05-14T03:16:50;23.88;;;19.35;;
19137;SDS011;68178;52.188;5.598;2023-05-14T03:19:16;27.65;;;19.55;;
19137;SDS011;68178;52.188;5.598;2023-05-14T03:21:42;24.13;;;19.30;;
19137;SDS011;68178;52.188;5.598;2023-05-14T03:24:07;24.63;;;19.85;;
19137;SDS011;68178;52.188;5.598;2023-05-14T03:26:33;28.98;;;19.35;;
19137;SDS011;68178;52.188;5.598;2023-05-14T03:28:58;21.35;;;18.90;;
19137;SDS011;68178;52.188;5.598;2023-05-14T03:31:24;29.25;;;21.02;;
19137;SDS011;68178;52.188;5.598;2023-05-14T03:33:49;23.35;;;19.40;;
19137;SDS011;68178;52.188;5.598;2023-05-14T03:36:15;24.75;;;19.40;;
19137;SDS011;68178;52.188;5.598;2023-05-14T03:38:41;24.17;;;19.25;;
19137;SDS011;68178;52.188;5.598;2023-05-14T03:41:06;27.92;;;20.75;;
19137;SDS011;68178;52.188;5.598;2023-05-14T03:43:32;26.65;;;19.10;;
19137;SDS011;68178;52.188;5.598;2023-05-14T03:45:57;27.80;;;19.80;;
19137;SDS011;68178;52.188;5.598;2023-05-14T03:48:23;27.27;;;20.63;;
19137;SDS011;68178;52.188;5.598;2023-05-14T03:50:52;24.58;;;19.45;;
19137;SDS011;68178;52.188;5.598;2023-05-14T03:53:18;24.52;;;19.83;;
19137;SDS011;68178;52.188;5.598;2023-05-14T03:55:43;24.48;;;19.77;;
19137;SDS011;68178;52.188;5.598;2023-05-14T03:58:09;29.13;;;21.45;;
19137;SDS011;68178;52.188;5.598;2023-05-14T04:00:39;33.05;;;22.02;;
19137;SDS011;68178;52.188;5.598;2023-05-14T04:03:05;28.52;;;20.60;;
19137;SDS011;68178;52.188;5.598;2023-05-14T04:05:32;24.50;;;20.80;;
19137;SDS011;68178;52.188;5.598;2023-05-14T04:08:00;27.33;;;21.20;;
19137;SDS011;68178;52.188;5.598;2023-05-14T04:10:26;28.27;;;21.42;;
19137;SDS011;68178;52.188;5.598;2023-05-14T04:12:52;28.08;;;20.75;;
19137;SDS011;68178;52.188;5.598;2023-05-14T04:15:19;29.70;;;20.95;;
19137;SDS011;68178;52.188;5.598;2023-05-14T04:17:44;26.48;;;19.33;;
19137;SDS011;68178;52.188;5.598;2023-05-14T04:20:10;24.50;;;20.50;;
19137;SDS011;68178;52.188;5.598;2023-05-14T04:22:35;24.50;;;20.00;;
19137;SDS011;68178;52.188;5.598;2023-05-14T04:25:01;22.48;;;20.10;;
19137;SDS011;68178;52.188;5.598;2023-05-14T04:27:27;27.63;;;20.15;;
19137;SDS011;68178;52.188;5.598;2023-05-14T04:29:52;28.08;;;21.33;;
19137;SDS011;68178;52.188;5.598;2023-05-14T04:32:18;23.15;;;19.65;;
19137;SDS011;68178;52.188;5.598;2023-05-14T04:34:44;26.83;;;20.58;;
19137;SDS011;68178;52.188;5.598;2023-05-14T04:37:11;24.63;;;19.67;;
19137;SDS011;68178;52.188;5.598;2023-05-14T04:39:36;26.77;;;20.58;;
19137;SDS011;68178;52.188;5.598;2023-05-14T04:42:02;28.98;;;20.05;;
19137;SDS011;68178;52.188;5.598;2023-05-14T04:44:28;26.98;;;19.50;;
19137;SDS011;68178;52.188;5.598;2023-05-14T04:46:53;23.98;;;19.42;;
19137;SDS011;68178;52.188;5.598;2023-05-14T04:49:19;27.90;;;19.65;;
19137;SDS011;68178;52.188;5.598;2023-05-14T04:51:45;26.23;;;19.95;;
19137;SDS011;68178;52.188;5.598;2023-05-14T04:54:12;26.88;;;19.83;;
19137;SDS011;68178;52.188;5.598;2023-05-14T04:56:37;24.50;;;19.17;;
19137;SDS011;68178;52.188;5.598;2023-05-14T04:59:03;24.65;;;18.60;;
19137;SDS011;68178;52.188;5.598;2023-05-14T05:01:28;23.77;;;17.73;;
19137;SDS011;68178;52.188;5.598;2023-05-14T05:03:54;22.20;;;17.13;;
19137;SDS011;68178;52.188;5.598;2023-05-14T05:06:21;25.08;;;19.00;;
19137;SDS011;68178;52.188;5.598;2023-05-14T05:08:47;19.40;;;17.13;;
19137;SDS011;68178;52.188;5.598;2023-05-14T05:11:12;25.48;;;18.65;;
19137;SDS011;68178;52.188;5.598;2023-05-14T05:13:38;21.80;;;19.05;;
19137;SDS011;68178;52.188;5.598;2023-05-14T05:16:03;19.92;;;17.42;;
19137;SDS011;68178;52.188;5.598;2023-05-14T05:18:29;24.67;;;18.38;;
19137;SDS011;68178;52.188;5.598;2023-05-14T05:20:55;22.25;;;18.27;;
19137;SDS011;68178;52.188;5.598;2023-05-14T05:23:20;22.70;;;17.30;;
19137;SDS011;68178;52.188;5.598;2023-05-14T05:25:46;19.48;;;16.55;;
19137;SDS011;68178;52.188;5.598;2023-05-14T05:28:11;23.05;;;18.05;;
19137;SDS011;68178;52.188;5.598;2023-05-14T05:30:37;20.10;;;17.30;;
19137;SDS011;68178;52.188;5.598;2023-05-14T05:33:02;21.90;;;17.05;;
19137;SDS011;68178;52.188;5.598;2023-05-14T05:35:28;19.45;;;16.70;;
19137;SDS011;68178;52.188;5.598;2023-05-14T05:37:54;19.27;;;16.60;;
19137;SDS011;68178;52.188;5.598;2023-05-14T05:40:19;23.15;;;17.83;;
19137;SDS011;68178;52.188;5.598;2023-05-14T05:42:45;27.27;;;17.25;;
19137;SDS011;68178;52.188;5.598;2023-05-14T05:45:10;24.00;;;17.63;;
19137;SDS011;68178;52.188;5.598;2023-05-14T05:47:36;20.27;;;17.25;;
19137;SDS011;68178;52.188;5.598;2023-05-14T05:50:01;27.02;;;17.55;;
19137;SDS011;68178;52.188;5.598;2023-05-14T05:52:27;20.50;;;16.70;;
19137;SDS011;68178;52.188;5.598;2023-05-14T05:54:52;23.52;;;18.10;;
19137;SDS011;68178;52.188;5.598;2023-05-14T05:57:18;21.90;;;18.23;;
19137;SDS011;68178;52.188;5.598;2023-05-14T05:59:43;20.88;;;16.98;;
19137;SDS011;68178;52.188;5.598;2023-05-14T06:02:09;19.42;;;17.30;;
19137;SDS011;68178;52.188;5.598;2023-05-14T06:04:35;21.13;;;17.58;;
19137;SDS011;68178;52.188;5.598;2023-05-14T06:07:00;19.30;;;16.88;;
19137;SDS011;68178;52.188;5.598;2023-05-14T06:09:26;24.70;;;16.80;;
19137;SDS011;68178;52.188;5.598;2023-05-14T06:11:51;19.00;;;17.00;;
19137;SDS011;68178;52.188;5.598;2023-05-14T06:14:17;19.98;;;16.92;;
19137;SDS011;68178;52.188;5.598;2023-05-14T06:16:42;24.05;;;16.90;;
19137;SDS011;68178;52.188;5.598;2023-05-14T06:19:08;17.65;;;15.80;;
19137;SDS011;68178;52.188;5.598;2023-05-14T06:21:34;21.50;;;16.17;;
19137;SDS011;68178;52.188;5.598;2023-05-14T06:23:59;19.40;;;16.60;;
19137;SDS011;68178;52.188;5.598;2023-05-14T06:26:25;21.10;;;16.45;;
19137;SDS011;68178;52.188;5.598;2023-05-14T06:28:50;18.50;;;15.90;;
19137;SDS011;68178;52.188;5.598;2023-05-14T06:31:16;19.27;;;16.40;;
19137;SDS011;68178;52.188;5.598;2023-05-14T06:33:42;17.80;;;15.77;;
19137;SDS011;68178;52.188;5.598;2023-05-14T06:36:09;21.85;;;15.38;;
19137;SDS011;68178;52.188;5.598;2023-05-14T06:38:34;18.27;;;16.05;;
19137;SDS011;68178;52.188;5.598;2023-05-14T06:41:00;20.45;;;16.23;;
19137;SDS011;68178;52.188;5.598;2023-05-14T06:43:26;17.92;;;15.23;;
19137;SDS011;68178;52.188;5.598;2023-05-14T06:45:52;17.73;;;15.07;;
19137;SDS011;68178;52.188;5.598;2023-05-14T06:48:17;16.90;;;14.60;;
19137;SDS011;68178;52.188;5.598;2023-05-14T06:50:44;20.10;;;14.90;;
19137;SDS011;68178;52.188;5.598;2023-05-14T06:53:10;18.55;;;15.60;;
19137;SDS011;68178;52.188;5.598;2023-05-14T06:55:36;18.83;;;15.02;;
19137;SDS011;68178;52.188;5.598;2023-05-14T06:58:01;18.95;;;14.98;;
19137;SDS011;68178;52.188;5.598;2023-05-14T07:00:28;20.05;;;15.13;;
19137;SDS011;68178;52.188;5.598;2023-05-14T07:02:54;19.45;;;14.10;;
19137;SDS011;68178;52.188;5.598;2023-05-14T07:05:20;20.30;;;15.13;;
19137;SDS011;68178;52.188;5.598;2023-05-14T07:07:45;18.90;;;15.73;;
19137;SDS011;68178;52.188;5.598;2023-05-14T07:10:11;16.90;;;15.02;;
19137;SDS011;68178;52.188;5.598;2023-05-14T07:12:36;17.63;;;15.80;;
19137;SDS011;68178;52.188;5.598;2023-05-14T07:15:02;17.20;;;13.65;;
19137;SDS011;68178;52.188;5.598;2023-05-14T07:17:27;15.10;;;13.48;;
19137;SDS011;68178;52.188;5.598;2023-05-14T07:19:53;15.63;;;13.93;;
19137;SDS011;68178;52.188;5.598;2023-05-14T07:22:20;16.60;;;14.27;;
19137;SDS011;68178;52.188;5.598;2023-05-14T07:24:45;17.45;;;14.10;;
19137;SDS011;68178;52.188;5.598;2023-05-14T07:27:11;15.68;;;13.80;;
19137;SDS011;68178;52.188;5.598;2023-05-14T07:29:37;18.10;;;14.00;;
19137;SDS011;68178;52.188;5.598;2023-05-14T07:32:02;16.00;;;14.15;;
19137;SDS011;68178;52.188;5.598;2023-05-14T07:34:28;14.10;;;12.57;;
19137;SDS011;68178;52.188;5.598;2023-05-14T07:36:54;15.75;;;13.20;;
19137;SDS011;68178;52.188;5.598;2023-05-14T07:39:19;16.60;;;13.13;;
19137;SDS011;68178;52.188;5.598;2023-05-14T07:41:45;14.05;;;12.55;;
19137;SDS011;68178;52.188;5.598;2023-05-14T07:44:14;14.27;;;12.73;;
19137;SDS011;68178;52.188;5.598;2023-05-14T07:46:39;13.50;;;12.10;;
19137;SDS011;68178;52.188;5.598;2023-05-14T07:49:05;14.73;;;13.05;;
19137;SDS011;68178;52.188;5.598;2023-05-14T07:51:30;14.77;;;12.88;;
19137;SDS011;68178;52.188;5.598;2023-05-14T07:53:57;15.40;;;12.43;;
19137;SDS011;68178;52.188;5.598;2023-05-14T07:56:23;12.88;;;11.65;;
19137;SDS011;68178;52.188;5.598;2023-05-14T07:58:49;14.30;;;12.75;;
19137;SDS011;68178;52.188;5.598;2023-05-14T08:01:15;15.38;;;13.05;;
19137;SDS011;68178;52.188;5.598;2023-05-14T08:03:41;15.48;;;13.80;;
19137;SDS011;68178;52.188;5.598;2023-05-14T08:06:07;17.73;;;14.13;;
19137;SDS011;68178;52.188;5.598;2023-05-14T08:08:33;16.75;;;15.13;;
19137;SDS011;68178;52.188;5.598;2023-05-14T08:10:58;19.10;;;14.65;;
19137;SDS011;68178;52.188;5.598;2023-05-14T08:13:24;17.98;;;14.70;;
19137;SDS011;68178;52.188;5.598;2023-05-14T08:15:50;15.60;;;12.98;;
19137;SDS011;68178;52.188;5.598;2023-05-14T08:18:19;19.65;;;14.85;;
19137;SDS011;68178;52.188;5.598;2023-05-14T08:20:44;18.55;;;14.95;;
19137;SDS011;68178;52.188;5.598;2023-05-14T08:23:10;16.98;;;14.88;;
19137;SDS011;68178;52.188;5.598;2023-05-14T08:25:36;15.80;;;13.93;;
19137;SDS011;68178;52.188;5.598;2023-05-14T08:28:02;19.15;;;14.43;;
19137;SDS011;68178;52.188;5.598;2023-05-14T08:30:27;17.52;;;14.13;;
19137;SDS011;68178;52.188;5.598;2023-05-14T08:32:53;16.40;;;14.60;;
19137;SDS011;68178;52.188;5.598;2023-05-14T08:35:18;18.38;;;13.20;;
19137;SDS011;68178;52.188;5.598;2023-05-14T08:37:44;17.95;;;12.30;;
19137;SDS011;68178;52.188;5.598;2023-05-14T08:40:10;15.30;;;12.07;;
19137;SDS011;68178;52.188;5.598;2023-05-14T08:42:39;13.13;;;10.98;;
19137;SDS011;68178;52.188;5.598;2023-05-14T08:45:05;13.88;;;10.90;;
19137;SDS011;68178;52.188;5.598;2023-05-14T08:47:37;14.02;;;11.00;;
19137;SDS011;68178;52.188;5.598;2023-05-14T08:50:03;10.68;;;9.57;;
19137;SDS011;68178;52.188;5.598;2023-05-14T08:52:30;15.30;;;11.27;;
19137;SDS011;68178;52.188;5.598;2023-05-14T08:54:58;12.10;;;10.02;;
19137;SDS011;68178;52.188;5.598;2023-05-14T08:57:25;11.18;;;9.90;;
19137;SDS011;68178;52.188;5.598;2023-05-14T08:59:52;12.50;;;10.20;;
19137;SDS011;68178;52.188;5.598;2023-05-14T09:02:26;17.67;;;10.60;;
19137;SDS011;68178;52.188;5.598;2023-05-14T09:04:54;13.45;;;11.00;;
19137;SDS011;68178;52.188;5.598;2023-05-14T09:07:21;13.27;;;10.00;;
19137;SDS011;68178;52.188;5.598;2023-05-14T09:09:47;12.38;;;10.02;;
19137;SDS011;68178;52.188;5.598;2023-05-14T09:12:13;11.75;;;9.52;;
19137;SDS011;68178;52.188;5.598;2023-05-14T09:14:39;11.45;;;9.73;;
19137;SDS011;68178;52.188;5.598;2023-05-14T09:17:05;14.38;;;8.90;;
19137;SDS011;68178;52.188;5.598;2023-05-14T09:19:31;14.98;;;10.00;;
19137;SDS011;68178;52.188;5.598;2023-05-14T09:21:57;12.45;;;10.02;;
19137;SDS011;68178;52.188;5.598;2023-05-14T09:24:26;10.55;;;9.27;;
19137;SDS011;68178;52.188;5.598;2023-05-14T09:26:57;12.05;;;10.18;;
19137;SDS011;68178;52.188;5.598;2023-05-14T09:29:23;15.90;;;10.75;;
19137;SDS011;68178;52.188;5.598;2023-05-14T09:31:50;12.32;;;9.82;;
19137;SDS011;68178;52.188;5.598;2023-05-14T09:34:22;14.18;;;9.77;;
19137;SDS011;68178;52.188;5.598;2023-05-14T09:36:49;12.35;;;10.55;;
19137;SDS011;68178;52.188;5.598;2023-05-14T09:39:18;13.75;;;10.93;;
19137;SDS011;68178;52.188;5.598;2023-05-14T09:41:44;14.50;;;10.55;;
19137;SDS011;68178;52.188;5.598;2023-05-14T09:44:09;12.70;;;9.90;;
19137;SDS011;68178;52.188;5.598;2023-05-14T09:46:35;15.80;;;11.05;;
19137;SDS011;68178;52.188;5.598;2023-05-14T09:49:00;16.42;;;12.00;;
19137;SDS011;68178;52.188;5.598;2023-05-14T09:51:28;13.02;;;10.30;;
19137;SDS011;68178;52.188;5.598;2023-05-14T09:53:55;11.93;;;10.05;;
19137;SDS011;68178;52.188;5.598;2023-05-14T09:56:24;14.30;;;11.07;;
19137;SDS011;68178;52.188;5.598;2023-05-14T09:58:50;15.75;;;11.13;;
19137;SDS011;68178;52.188;5.598;2023-05-14T10:01:16;12.05;;;10.85;;
19137;SDS011;68178;52.188;5.598;2023-05-14T10:03:43;15.00;;;11.18;;
19137;SDS011;68178;52.188;5.598;2023-05-14T10:06:08;11.50;;;10.35;;
19137;SDS011;68178;52.188;5.598;2023-05-14T10:08:40;10.40;;;8.85;;
19137;SDS011;68178;52.188;5.598;2023-05-14T10:11:18;9.63;;;8.57;;
19137;SDS011;68178;52.188;5.598;2023-05-14T10:13:51;11.98;;;10.60;;
19137;SDS011;68178;52.188;5.598;2023-05-14T10:18:51;10.75;;;9.68;;
19137;SDS011;68178;52.188;5.598;2023-05-14T10:21:22;12.15;;;10.55;;
19137;SDS011;68178;52.188;5.598;2023-05-14T10:23:50;12.48;;;9.90;;
19137;SDS011;68178;52.188;5.598;2023-05-14T10:26:16;14.63;;;10.35;;
19137;SDS011;68178;52.188;5.598;2023-05-14T10:28:42;11.00;;;9.18;;
19137;SDS011;68178;52.188;5.598;2023-05-14T10:31:08;13.38;;;10.52;;
19137;SDS011;68178;52.188;5.598;2023-05-14T10:33:44;14.10;;;10.18;;
19137;SDS011;68178;52.188;5.598;2023-05-14T10:36:11;16.50;;;9.23;;
19137;SDS011;68178;52.188;5.598;2023-05-14T10:38:37;12.25;;;9.82;;
19137;SDS011;68178;52.188;5.598;2023-05-14T10:41:09;12.10;;;9.52;;
19137;SDS011;68178;52.188;5.598;2023-05-14T10:43:37;13.52;;;10.60;;
19137;SDS011;68178;52.188;5.598;2023-05-14T10:46:06;15.65;;;11.02;;
19137;SDS011;68178;52.188;5.598;2023-05-14T10:48:33;11.77;;;10.27;;
19137;SDS011;68178;52.188;5.598;2023-05-14T10:51:01;15.90;;;10.00;;
19137;SDS011;68178;52.188;5.598;2023-05-14T10:53:33;14.77;;;10.73;;
19137;SDS011;68178;52.188;5.598;2023-05-14T10:56:10;14.55;;;10.85;;
19137;SDS011;68178;52.188;5.598;2023-05-14T10:58:38;10.15;;;9.15;;
19137;SDS011;68178;52.188;5.598;2023-05-14T11:01:05;16.23;;;10.85;;
19137;SDS011;68178;52.188;5.598;2023-05-14T11:03:37;13.20;;;10.05;;
19137;SDS011;68178;52.188;5.598;2023-05-14T11:06:05;16.52;;;9.88;;
19137;SDS011;68178;52.188;5.598;2023-05-14T11:08:31;12.55;;;9.43;;
19137;SDS011;68178;52.188;5.598;2023-05-14T11:11:00;12.65;;;10.27;;
19137;SDS011;68178;52.188;5.598;2023-05-14T11:13:26;12.90;;;9.40;;
19137;SDS011;68178;52.188;5.598;2023-05-14T11:15:52;12.20;;;9.45;;
19137;SDS011;68178;52.188;5.598;2023-05-14T11:21:02;13.68;;;9.52;;
19137;SDS011;68178;52.188;5.598;2023-05-14T11:23:27;11.85;;;8.90;;
19137;SDS011;68178;52.188;5.598;2023-05-14T11:25:54;14.35;;;9.85;;
19137;SDS011;68178;52.188;5.598;2023-05-14T11:28:23;11.68;;;8.38;;
19137;SDS011;68178;52.188;5.598;2023-05-14T11:30:50;14.25;;;9.15;;
19137;SDS011;68178;52.188;5.598;2023-05-14T11:33:17;10.35;;;7.75;;
19137;SDS011;68178;52.188;5.598;2023-05-14T11:35:44;10.93;;;8.10;;
19137;SDS011;68178;52.188;5.598;2023-05-14T11:38:16;9.95;;;8.68;;
19137;SDS011;68178;52.188;5.598;2023-05-14T11:40:55;9.65;;;8.48;;
19137;SDS011;68178;52.188;5.598;2023-05-14T11:43:22;13.68;;;8.95;;
19137;SDS011;68178;52.188;5.598;2023-05-14T11:45:52;12.60;;;8.70;;
19137;SDS011;68178;52.188;5.598;2023-05-14T11:48:18;15.18;;;8.70;;
19137;SDS011;68178;52.188;5.598;2023-05-14T11:50:48;11.98;;;8.07;;
19137;SDS011;68178;52.188;5.598;2023-05-14T11:53:25;13.70;;;8.40;;
19137;SDS011;68178;52.188;5.598;2023-05-14T11:55:54;8.98;;;8.07;;
19137;SDS011;68178;52.188;5.598;2023-05-14T11:58:23;11.82;;;7.72;;
19137;SDS011;68178;52.188;5.598;2023-05-14T12:00:49;8.65;;;6.30;;
19137;SDS011;68178;52.188;5.598;2023-05-14T12:03:17;10.15;;;6.88;;
19137;SDS011;68178;52.188;5.598;2023-05-14T12:05:59;10.55;;;7.13;;
19137;SDS011;68178;52.188;5.598;2023-05-14T12:08:27;10.88;;;6.55;;
19137;SDS011;68178;52.188;5.598;2023-05-14T12:10:54;8.55;;;6.30;;
19137;SDS011;68178;52.188;5.598;2023-05-14T12:13:20;11.75;;;6.05;;
19137;SDS011;68178;52.188;5.598;2023-05-14T12:15:47;9.13;;;5.88;;
19137;SDS011;68178;52.188;5.598;2023-05-14T12:18:18;10.90;;;5.95;;
19137;SDS011;68178;52.188;5.598;2023-05-14T12:20:47;7.38;;;6.05;;
19137;SDS011;68178;52.188;5.598;2023-05-14T12:23:13;10.02;;;6.72;;
19137;SDS011;68178;52.188;5.598;2023-05-14T12:25:39;7.00;;;6.40;;
19137;SDS011;68178;52.188;5.598;2023-05-14T12:28:16;7.18;;;6.47;;
19137;SDS011;68178;52.188;5.598;2023-05-14T12:30:43;7.57;;;6.25;;
19137;SDS011;68178;52.188;5.598;2023-05-14T12:33:09;9.77;;;6.30;;
19137;SDS011;68178;52.188;5.598;2023-05-14T12:35:34;6.75;;;6.05;;
19137;SDS011;68178;52.188;5.598;2023-05-14T12:38:01;6.97;;;5.10;;
19137;SDS011;68178;52.188;5.598;2023-05-14T12:40:27;6.22;;;4.80;;
19137;SDS011;68178;52.188;5.598;2023-05-14T12:42:52;5.60;;;4.60;;
19137;SDS011;68178;52.188;5.598;2023-05-14T12:45:18;8.27;;;5.13;;
19137;SDS011;68178;52.188;5.598;2023-05-14T12:47:44;5.43;;;4.88;;
19137;SDS011;68178;52.188;5.598;2023-05-14T12:50:10;10.15;;;5.50;;
19137;SDS011;68178;52.188;5.598;2023-05-14T12:52:36;7.07;;;5.15;;
19137;SDS011;68178;52.188;5.598;2023-05-14T12:55:01;7.80;;;4.43;;
19137;SDS011;68178;52.188;5.598;2023-05-14T12:57:27;6.78;;;4.45;;
19137;SDS011;68178;52.188;5.598;2023-05-14T12:59:54;7.88;;;5.60;;
19137;SDS011;68178;52.188;5.598;2023-05-14T13:02:19;7.57;;;5.85;;
19137;SDS011;68178;52.188;5.598;2023-05-14T13:04:46;5.20;;;4.70;;
19137;SDS011;68178;52.188;5.598;2023-05-14T13:07:11;7.72;;;4.80;;
19137;SDS011;68178;52.188;5.598;2023-05-14T13:09:37;6.75;;;4.85;;
19137;SDS011;68178;52.188;5.598;2023-05-14T13:12:03;5.05;;;4.30;;
19137;SDS011;68178;52.188;5.598;2023-05-14T13:14:28;6.65;;;5.13;;
19137;SDS011;68178;52.188;5.598;2023-05-14T13:16:54;5.78;;;3.90;;
19137;SDS011;68178;52.188;5.598;2023-05-14T13:19:20;8.45;;;4.97;;
19137;SDS011;68178;52.188;5.598;2023-05-14T13:21:45;6.60;;;4.13;;
19137;SDS011;68178;52.188;5.598;2023-05-14T13:24:11;7.55;;;4.55;;
19137;SDS011;68178;52.188;5.598;2023-05-14T13:26:36;7.90;;;5.03;;
19137;SDS011;68178;52.188;5.598;2023-05-14T13:29:02;7.22;;;4.78;;
19137;SDS011;68178;52.188;5.598;2023-05-14T13:31:34;4.97;;;3.90;;
19137;SDS011;68178;52.188;5.598;2023-05-14T13:33:59;6.30;;;4.47;;
19137;SDS011;68178;52.188;5.598;2023-05-14T13:36:26;6.70;;;4.22;;
19137;SDS011;68178;52.188;5.598;2023-05-14T13:38:52;7.28;;;4.75;;
19137;SDS011;68178;52.188;5.598;2023-05-14T13:41:17;6.82;;;5.03;;
19137;SDS011;68178;52.188;5.598;2023-05-14T13:43:44;7.20;;;4.82;;
19137;SDS011;68178;52.188;5.598;2023-05-14T13:46:09;6.72;;;4.57;;
19137;SDS011;68178;52.188;5.598;2023-05-14T13:48:35;7.70;;;5.28;;
19137;SDS011;68178;52.188;5.598;2023-05-14T13:51:01;9.82;;;5.03;;
19137;SDS011;68178;52.188;5.598;2023-05-14T13:53:27;6.97;;;4.72;;
19137;SDS011;68178;52.188;5.598;2023-05-14T13:55:52;8.75;;;4.70;;
19137;SDS011;68178;52.188;5.598;2023-05-14T13:58:24;8.43;;;4.55;;
19137;SDS011;68178;52.188;5.598;2023-05-14T14:00:50;7.72;;;4.90;;
19137;SDS011;68178;52.188;5.598;2023-05-14T14:03:16;8.98;;;6.03;;
19137;SDS011;68178;52.188;5.598;2023-05-14T14:05:42;10.43;;;6.70;;
19137;SDS011;68178;52.188;5.598;2023-05-14T14:08:08;7.97;;;6.18;;
19137;SDS011;68178;52.188;5.598;2023-05-14T14:10:33;8.07;;;6.40;;
19137;SDS011;68178;52.188;5.598;2023-05-14T14:13:00;8.52;;;6.50;;
19137;SDS011;68178;52.188;5.598;2023-05-14T14:15:25;10.23;;;5.95;;
19137;SDS011;68178;52.188;5.598;2023-05-14T14:17:51;10.75;;;6.75;;
19137;SDS011;68178;52.188;5.598;2023-05-14T14:20:17;12.75;;;7.20;;
19137;SDS011;68178;52.188;5.598;2023-05-14T14:22:42;12.05;;;7.43;;
19137;SDS011;68178;52.188;5.598;2023-05-14T14:25:09;8.63;;;7.22;;
19137;SDS011;68178;52.188;5.598;2023-05-14T14:27:36;11.10;;;6.90;;
19137;SDS011;68178;52.188;5.598;2023-05-14T14:30:11;8.57;;;7.32;;
19137;SDS011;68178;52.188;5.598;2023-05-14T14:32:43;15.88;;;6.95;;
19137;SDS011;68178;52.188;5.598;2023-05-14T14:35:13;8.30;;;6.30;;